createdAt,value
2019-03-27T00:00:08.284Z,96578.03
2019-03-27T00:02:36.634Z,96585.30
2019-03-27T00:05:05.967Z,96583.19
2019-03-27T00:07:34.317Z,96577.73
2019-03-27T00:12:39.947Z,96573.15
2019-03-27T00:15:13.145Z,96569.39
2019-03-27T00:17:38.506Z,96567.70
2019-03-27T00:20:08.183Z,96567.16
2019-03-27T00:22:36.518Z,96574.91
2019-03-27T00:25:07.431Z,96574.68
2019-03-27T00:27:35.792Z,96575.26
2019-03-27T00:30:05.984Z,96577.19
2019-03-27T00:32:34.327Z,96572.19
2019-03-27T00:35:02.676Z,96573.91
2019-03-27T00:37:31.009Z,96580.40
2019-03-27T00:39:59.345Z,96579.18
2019-03-27T00:42:27.747Z,96580.02
2019-03-27T00:47:30.286Z,96580.47
2019-03-27T00:49:58.636Z,96578.92
2019-03-27T00:52:26.983Z,96574.20
2019-03-27T00:54:55.316Z,96572.97
2019-03-27T00:57:23.704Z,96575.77
2019-03-27T00:59:52.082Z,96577.64
2019-03-27T01:02:20.421Z,96581.98
2019-03-27T01:04:48.787Z,96572.81
2019-03-27T01:07:17.113Z,96574.70
2019-03-27T01:09:45.454Z,96574.13
2019-03-27T01:14:51.050Z,96567.66
2019-03-27T01:17:21.382Z,96568.00
2019-03-27T01:19:49.753Z,96567.14
2019-03-27T01:22:18.128Z,96563.63
2019-03-27T01:24:46.464Z,96562.28
2019-03-27T01:27:14.827Z,96559.11
2019-03-27T01:29:43.167Z,96555.35
2019-03-27T01:34:45.755Z,96552.67
2019-03-27T01:37:15.051Z,96551.34
2019-03-27T01:39:44.350Z,96551.17
2019-03-27T01:42:13.649Z,96555.84
2019-03-27T01:44:41.988Z,96559.88
2019-03-27T01:47:10.416Z,96556.74
2019-03-27T01:49:39.707Z,96561.29
2019-03-27T01:52:09.016Z,96556.05
2019-03-27T01:54:37.423Z,96559.50
2019-03-27T01:57:05.768Z,96567.19
2019-03-27T01:59:34.097Z,96565.05
2019-03-27T02:02:02.450Z,96562.55
2019-03-27T02:04:31.751Z,96561.33
2019-03-27T02:07:02.095Z,96564.05
2019-03-27T02:09:30.435Z,96567.56
2019-03-27T02:11:58.786Z,96570.47
2019-03-27T02:19:40.617Z,96572.41
2019-03-27T02:22:08.982Z,96570.80
2019-03-27T02:24:37.326Z,96569.47
2019-03-27T02:27:05.675Z,96569.29
2019-03-27T02:29:34.017Z,96565.78
2019-03-27T02:32:02.398Z,96569.72
2019-03-27T02:34:30.745Z,96574.87
2019-03-27T02:36:59.105Z,96572.77
2019-03-27T02:44:09.809Z,96571.61
2019-03-27T02:46:38.166Z,96574.05
2019-03-27T02:49:06.504Z,96574.92
2019-03-27T02:51:34.868Z,96581.28
2019-03-27T02:54:03.226Z,96583.75
2019-03-27T02:56:31.579Z,96581.76
2019-03-27T02:58:59.910Z,96581.64
2019-03-27T03:01:28.277Z,96583.55
2019-03-27T03:03:56.619Z,96579.38
2019-03-27T03:06:24.983Z,96579.23
2019-03-27T03:08:53.324Z,96578.37
2019-03-27T03:11:21.682Z,96580.61
2019-03-27T03:13:50.020Z,96579.24
2019-03-27T03:16:18.398Z,96580.48
2019-03-27T03:18:46.731Z,96576.24
2019-03-27T03:21:15.107Z,96574.95
2019-03-27T03:23:43.457Z,96570.98
2019-03-27T03:26:11.807Z,96562.69
2019-03-27T03:28:40.174Z,96571.95
2019-03-27T03:31:09.491Z,96564.93
2019-03-27T03:33:37.843Z,96565.06
2019-03-27T03:36:06.193Z,96568.38
2019-03-27T03:41:08.720Z,96573.94
2019-03-27T03:43:37.061Z,96579.42
2019-03-27T03:46:05.435Z,96577.86
2019-03-27T03:48:33.811Z,96570.49
2019-03-27T03:51:02.157Z,96575.64
2019-03-27T03:53:31.489Z,96575.51
2019-03-27T03:55:59.838Z,96577.63
2019-03-27T03:58:28.182Z,96576.91
2019-03-27T04:03:31.721Z,96577.69
2019-03-27T04:06:00.179Z,96582.45
2019-03-27T04:08:28.519Z,96573.37
2019-03-27T04:13:31.110Z,96578.45
2019-03-27T04:15:59.547Z,96580.64
2019-03-27T04:18:27.895Z,96583.14
2019-03-27T04:20:56.238Z,96586.60
2019-03-27T04:23:24.596Z,96587.66
2019-03-27T04:26:08.948Z,96588.84
2019-03-27T04:28:21.310Z,96594.89
2019-03-27T04:30:51.578Z,96587.88
2019-03-27T04:33:19.950Z,96587.50
2019-03-27T04:35:49.270Z,96590.91
2019-03-27T04:38:17.623Z,96588.21
2019-03-27T04:40:49.532Z,96588.23
2019-03-27T04:43:17.947Z,96591.98
2019-03-27T04:45:46.272Z,96592.97
2019-03-27T04:48:14.817Z,96593.29
2019-03-27T04:50:43.184Z,96592.70
2019-03-27T04:53:11.546Z,96593.83
2019-03-27T04:55:40.822Z,96600.48
2019-03-27T04:58:09.186Z,96593.97
2019-03-27T05:00:37.524Z,96603.83
2019-03-27T05:03:05.881Z,96606.40
2019-03-27T05:05:34.227Z,96606.45
2019-03-27T05:08:02.578Z,96606.98
2019-03-27T05:10:30.939Z,96609.80
2019-03-27T05:12:59.349Z,96614.67
2019-03-27T05:15:27.668Z,96618.33
2019-03-27T05:17:56.907Z,96619.25
2019-03-27T05:20:28.553Z,96618.59
2019-03-27T05:25:27.884Z,96627.66
2019-03-27T05:30:30.577Z,96630.22
2019-03-27T05:32:58.976Z,96628.95
2019-03-27T05:35:27.348Z,96628.66
2019-03-27T05:37:55.709Z,96632.75
2019-03-27T05:40:24.048Z,96634.91
2019-03-27T05:43:00.591Z,96637.66
2019-03-27T05:45:20.757Z,96639.56
2019-03-27T05:47:58.861Z,96640.00
2019-03-27T05:50:17.555Z,96638.49
2019-03-27T05:52:46.362Z,96640.41
2019-03-27T05:55:14.700Z,96636.84
2019-03-27T05:57:43.040Z,96641.02
2019-03-27T06:00:11.393Z,96640.48
2019-03-27T06:02:39.759Z,96637.84
2019-03-27T06:05:08.096Z,96646.16
2019-03-27T06:07:36.440Z,96648.36
2019-03-27T06:10:04.789Z,96654.17
2019-03-27T06:12:33.132Z,96653.86
2019-03-27T06:15:01.472Z,96653.95
2019-03-27T06:17:29.821Z,96656.23
2019-03-27T06:19:58.156Z,96661.52
2019-03-27T06:22:26.505Z,96662.66
2019-03-27T06:27:29.131Z,96665.87
2019-03-27T06:29:57.462Z,96663.59
2019-03-27T06:32:25.813Z,96664.16
2019-03-27T06:34:54.155Z,96661.86
2019-03-27T06:37:22.516Z,96659.10
2019-03-27T06:39:51.755Z,96659.62
2019-03-27T06:42:20.139Z,96661.83
2019-03-27T06:44:48.471Z,96666.87
2019-03-27T06:47:16.819Z,96666.87
2019-03-27T06:49:45.176Z,96662.16
2019-03-27T06:52:13.531Z,96671.82
2019-03-27T06:54:41.870Z,96675.35
2019-03-27T06:57:10.240Z,96678.94
2019-03-27T06:59:38.582Z,96677.47
2019-03-27T07:02:06.943Z,96674.52
2019-03-27T07:04:35.284Z,96675.57
2019-03-27T07:07:03.632Z,96676.41
2019-03-27T07:09:31.989Z,96675.97
2019-03-27T07:12:00.334Z,96676.87
2019-03-27T07:14:28.690Z,96674.41
2019-03-27T07:19:31.295Z,96682.09
2019-03-27T07:21:59.660Z,96686.97
2019-03-27T07:24:28.002Z,96689.30
2019-03-27T07:26:56.361Z,96692.45
2019-03-27T07:29:25.690Z,96690.95
2019-03-27T07:31:54.041Z,96696.67
2019-03-27T07:34:22.384Z,96698.72
2019-03-27T07:36:50.740Z,96696.87
2019-03-27T07:39:19.074Z,96698.41
2019-03-27T07:41:47.413Z,96701.02
2019-03-27T07:46:49.992Z,96705.22
2019-03-27T07:49:18.340Z,96706.72
2019-03-27T07:51:46.694Z,96706.66
2019-03-27T07:56:50.228Z,96706.38
2019-03-27T07:59:18.672Z,96701.45
2019-03-27T08:01:46.977Z,96705.55
2019-03-27T08:06:52.576Z,96704.61
2019-03-27T08:09:23.076Z,96703.63
2019-03-27T08:11:49.258Z,96704.27
2019-03-27T08:14:18.585Z,96705.41
2019-03-27T08:16:46.937Z,96702.94
2019-03-27T08:19:15.285Z,96701.68
2019-03-27T08:21:43.628Z,96701.47
2019-03-27T08:24:12.019Z,96696.20
2019-03-27T08:26:40.356Z,96699.08
2019-03-27T08:29:08.692Z,96699.34
2019-03-27T08:31:39.016Z,96698.36
2019-03-27T08:34:08.320Z,96705.98
2019-03-27T08:36:36.676Z,96712.63
2019-03-27T08:39:04.990Z,96719.08
2019-03-27T08:41:33.381Z,96714.77
2019-03-27T08:44:01.712Z,96716.29
2019-03-27T08:46:30.054Z,96715.28
2019-03-27T08:48:58.373Z,96716.02
2019-03-27T08:51:26.742Z,96718.06
2019-03-27T08:53:55.085Z,96720.99
2019-03-27T08:56:23.426Z,96723.95
2019-03-27T08:58:51.756Z,96721.26
2019-03-27T09:01:20.098Z,96721.13
2019-03-27T09:03:49.353Z,96724.16
2019-03-27T09:06:17.685Z,96728.72
2019-03-27T09:08:46.029Z,96727.27
2019-03-27T09:11:14.408Z,96731.86
2019-03-27T09:13:42.748Z,96731.70
2019-03-27T09:16:11.080Z,96733.31
2019-03-27T09:18:39.440Z,96730.73
2019-03-27T09:23:45.320Z,96737.82
2019-03-27T09:26:10.395Z,96740.10
2019-03-27T09:28:38.729Z,96745.97
2019-03-27T09:31:07.075Z,96746.81
2019-03-27T09:33:35.497Z,96746.45
2019-03-27T09:36:03.936Z,96747.66
2019-03-27T09:38:32.156Z,96744.55
2019-03-27T09:41:00.506Z,96745.44
2019-03-27T09:43:28.850Z,96745.75
2019-03-27T09:45:57.201Z,96739.95
2019-03-27T09:50:59.718Z,96749.03
2019-03-27T09:53:28.068Z,96752.38
2019-03-27T09:55:56.410Z,96762.23
2019-03-27T09:58:24.781Z,96763.23
2019-03-27T10:03:27.384Z,96761.20
2019-03-27T10:08:33.912Z,96759.63
2019-03-27T10:11:02.264Z,96757.02
2019-03-27T10:13:30.668Z,96758.52
2019-03-27T10:15:59.021Z,96758.02
2019-03-27T10:18:27.434Z,96755.59
2019-03-27T10:20:55.781Z,96756.47
2019-03-27T10:23:25.117Z,96753.27
2019-03-27T10:25:53.470Z,96752.48
2019-03-27T10:28:21.848Z,96752.70
2019-03-27T10:30:50.222Z,96754.86
2019-03-27T10:33:18.556Z,96757.59
2019-03-27T10:35:46.896Z,96759.28
2019-03-27T10:38:15.254Z,96760.47
2019-03-27T10:40:43.600Z,96763.30
2019-03-27T10:43:11.952Z,96761.12
2019-03-27T10:45:40.309Z,96759.72
2019-03-27T10:48:08.658Z,96758.77
2019-03-27T10:50:37.013Z,96756.93
2019-03-27T10:53:05.348Z,96753.30
2019-03-27T10:55:34.580Z,96753.14
2019-03-27T10:58:02.061Z,96752.50
2019-03-27T11:00:31.419Z,96746.76
2019-03-27T11:02:59.753Z,96753.55
2019-03-27T11:05:28.115Z,96751.30
2019-03-27T11:10:30.744Z,96750.77
2019-03-27T11:12:59.116Z,96755.86
2019-03-27T11:15:27.465Z,96753.27
2019-03-27T11:20:31.483Z,96754.23
2019-03-27T11:22:58.433Z,96750.14
2019-03-27T11:25:26.809Z,96753.45
2019-03-27T11:27:55.165Z,96749.50
2019-03-27T11:30:23.504Z,96743.62
2019-03-27T11:32:51.862Z,96743.72
2019-03-27T11:35:20.239Z,96743.27
2019-03-27T11:37:48.580Z,96739.48
2019-03-27T11:40:17.913Z,96739.99
2019-03-27T11:42:46.266Z,96745.23
2019-03-27T11:45:14.613Z,96740.57
2019-03-27T11:50:20.048Z,96748.32
2019-03-27T11:55:22.612Z,96743.91
2019-03-27T11:57:50.968Z,96743.45
2019-03-27T12:00:19.328Z,96743.22
2019-03-27T12:05:21.861Z,96744.70
2019-03-27T12:07:50.250Z,96741.53
2019-03-27T12:10:18.622Z,96737.98
2019-03-27T12:15:39.657Z,96736.92
2019-03-27T12:18:08.130Z,96737.56
2019-03-27T12:20:36.472Z,96739.91
2019-03-27T12:25:39.055Z,96732.13
2019-03-27T12:28:10.758Z,96729.28
2019-03-27T12:30:39.128Z,96723.52
2019-03-27T12:33:07.482Z,96725.44
2019-03-27T12:35:35.839Z,96724.09
2019-03-27T12:38:04.577Z,96718.53
2019-03-27T12:43:06.869Z,96711.45
2019-03-27T12:45:35.233Z,96710.97
2019-03-27T12:48:03.644Z,96704.10
2019-03-27T12:50:31.997Z,96704.50
2019-03-27T12:53:00.388Z,96698.73
2019-03-27T12:58:03.015Z,96699.98
2019-03-27T13:00:31.372Z,96702.64
2019-03-27T13:05:36.987Z,96698.58
2019-03-27T13:08:05.366Z,96708.00
2019-03-27T13:10:33.778Z,96712.61
2019-03-27T13:15:36.427Z,96701.75
2019-03-27T13:18:04.738Z,96691.77
2019-03-27T13:20:34.016Z,96689.51
2019-03-27T13:23:02.372Z,96687.07
2019-03-27T13:28:05.025Z,96693.29
2019-03-27T13:30:33.405Z,96690.29
2019-03-27T13:33:01.801Z,96684.70
2019-03-27T13:35:30.144Z,96681.59
2019-03-27T13:37:58.664Z,96680.28
2019-03-27T13:40:27.032Z,96684.08
2019-03-27T13:42:55.430Z,96687.15
2019-03-27T13:45:24.693Z,96687.83
2019-03-27T13:47:53.024Z,96684.20
2019-03-27T13:50:21.476Z,96684.25
2019-03-27T13:52:49.874Z,96686.89
2019-03-27T13:57:52.685Z,96687.02
2019-03-27T14:00:21.060Z,96688.97
2019-03-27T14:02:49.500Z,96689.09
2019-03-27T14:05:17.866Z,96687.59
2019-03-27T14:07:46.228Z,96688.27
2019-03-27T14:10:14.571Z,96687.14
2019-03-27T14:12:42.936Z,96685.50
2019-03-27T14:15:11.305Z,96686.37
2019-03-27T14:17:39.656Z,96691.70
2019-03-27T14:20:08.010Z,96694.19
2019-03-27T14:22:36.447Z,96693.18
2019-03-27T14:27:39.087Z,96691.34
2019-03-27T14:30:07.421Z,96693.64
2019-03-27T14:32:35.778Z,96695.48
2019-03-27T14:35:04.186Z,96691.86
2019-03-27T14:37:32.531Z,96687.69
2019-03-27T14:40:00.889Z,96700.37
2019-03-27T14:42:29.254Z,96692.64
2019-03-27T14:44:57.596Z,96693.98
2019-03-27T14:47:25.966Z,96692.59
2019-03-27T14:49:54.329Z,96693.23
2019-03-27T14:52:22.709Z,96696.70
2019-03-27T14:54:51.106Z,96698.12
2019-03-27T14:57:19.486Z,96694.07
2019-03-27T15:02:24.118Z,96699.08
2019-03-27T15:04:53.476Z,96703.91
2019-03-27T15:07:21.868Z,96702.66
2019-03-27T15:09:50.352Z,96697.00
2019-03-27T15:12:18.699Z,96696.98
2019-03-27T15:14:47.060Z,96699.47
2019-03-27T15:17:15.408Z,96701.78
2019-03-27T15:19:43.768Z,96697.27
2019-03-27T15:22:22.472Z,96698.77
2019-03-27T15:24:40.539Z,96697.64
2019-03-27T15:27:08.883Z,96697.22
2019-03-27T15:29:37.232Z,96693.80
2019-03-27T15:32:05.571Z,96694.56
2019-03-27T15:34:33.924Z,96693.89
2019-03-27T15:37:03.278Z,96696.40
2019-03-27T15:39:31.626Z,96697.31
2019-03-27T15:41:59.971Z,96693.11
2019-03-27T15:44:28.326Z,96691.32
2019-03-27T15:46:56.674Z,96688.95
2019-03-27T15:49:25.016Z,96689.72
2019-03-27T15:51:53.381Z,96690.17
2019-03-27T15:54:22.982Z,96691.05
2019-03-27T15:56:53.097Z,96687.57
2019-03-27T15:59:21.601Z,96693.12
2019-03-27T16:01:50.020Z,96689.86
2019-03-27T16:04:18.478Z,96687.50
2019-03-27T16:09:21.113Z,96689.50
2019-03-27T16:11:50.477Z,96687.16
2019-03-27T16:14:18.840Z,96695.82
2019-03-27T16:17:06.894Z,96693.52
2019-03-27T16:19:16.540Z,96698.61
2019-03-27T16:21:44.887Z,96694.62
2019-03-27T16:24:13.310Z,96696.83
2019-03-27T16:26:41.664Z,96699.91
2019-03-27T16:34:16.045Z,96702.45
2019-03-27T16:36:44.417Z,96699.34
2019-03-27T16:39:12.765Z,96700.52
2019-03-27T16:41:41.201Z,96703.30
2019-03-27T16:44:09.532Z,96703.53
2019-03-27T16:46:38.841Z,96710.67
2019-03-27T16:49:07.194Z,96703.41
2019-03-27T16:51:36.528Z,96706.36
2019-03-27T16:54:04.906Z,96703.64
2019-03-27T16:56:33.290Z,96717.89
2019-03-27T16:59:01.633Z,96723.15
2019-03-27T17:01:29.980Z,96724.03
2019-03-27T17:03:58.321Z,96726.86
2019-03-27T17:06:26.698Z,96724.41
2019-03-27T17:08:55.041Z,96723.45
2019-03-27T17:11:23.429Z,96727.56
2019-03-27T17:13:51.826Z,96726.39
2019-03-27T17:16:20.204Z,96728.22
2019-03-27T17:18:48.596Z,96734.12
2019-03-27T17:21:16.955Z,96734.11
2019-03-27T17:26:19.480Z,96740.94
2019-03-27T17:28:47.869Z,96743.14
2019-03-27T17:31:16.250Z,96747.70
2019-03-27T17:33:44.599Z,96747.19
2019-03-27T17:36:13.858Z,96750.86
2019-03-27T17:38:42.241Z,96754.81
2019-03-27T17:41:10.626Z,96755.94
2019-03-27T17:43:38.992Z,96761.19
2019-03-27T17:46:07.390Z,96763.20
2019-03-27T17:48:35.740Z,96762.49
2019-03-27T17:51:04.122Z,96761.37
2019-03-27T17:56:06.693Z,96769.39
2019-03-27T17:58:35.042Z,96767.63
2019-03-27T18:01:03.420Z,96770.41
2019-03-27T18:03:31.740Z,96770.25
2019-03-27T18:06:00.113Z,96767.63
2019-03-27T18:08:28.535Z,96770.77
2019-03-27T18:10:56.819Z,96773.30
2019-03-27T18:13:25.183Z,96773.80
2019-03-27T18:15:53.526Z,96777.83
2019-03-27T18:18:21.873Z,96776.92
2019-03-27T18:20:50.225Z,96779.11
2019-03-27T18:23:18.599Z,96781.86
2019-03-27T18:25:47.001Z,96785.67
2019-03-27T18:28:15.429Z,96784.39
2019-03-27T18:30:43.804Z,96790.41
2019-03-27T18:33:12.177Z,96784.79
2019-03-27T18:35:40.554Z,96793.64
2019-03-27T18:38:08.919Z,96790.52
2019-03-27T18:40:37.251Z,96797.27
2019-03-27T18:43:05.636Z,96802.39
2019-03-27T18:45:33.991Z,96802.80
2019-03-27T18:48:02.526Z,96804.88
2019-03-27T18:50:30.849Z,96806.16
2019-03-27T18:52:59.208Z,96807.20
2019-03-27T18:55:27.566Z,96811.48
2019-03-27T18:58:00.371Z,96809.19
2019-03-27T19:02:59.501Z,96818.27
2019-03-27T19:05:27.852Z,96814.28
2019-03-27T19:07:56.210Z,96816.59
2019-03-27T19:10:24.563Z,96818.09
2019-03-27T19:12:52.920Z,96819.87
2019-03-27T19:15:21.302Z,96823.17
2019-03-27T19:17:49.663Z,96825.95
2019-03-27T19:20:18.045Z,96826.69
2019-03-27T19:22:46.428Z,96827.45
2019-03-27T19:25:14.749Z,96825.00
2019-03-27T19:27:43.141Z,96825.48
2019-03-27T19:30:11.477Z,96833.48
2019-03-27T19:32:40.848Z,96827.05
2019-03-27T19:35:09.233Z,96826.70
2019-03-27T19:37:37.564Z,96824.50
2019-03-27T19:40:05.953Z,96822.91
2019-03-27T19:42:34.296Z,96824.91
2019-03-27T19:45:02.637Z,96822.16
2019-03-27T19:47:32.963Z,96825.81
2019-03-27T19:50:01.337Z,96824.22
2019-03-27T19:52:29.831Z,96826.38
2019-03-27T19:54:58.138Z,96829.27
2019-03-27T19:57:26.522Z,96826.55
2019-03-27T19:59:54.861Z,96834.23
2019-03-27T20:02:23.219Z,96837.39
2019-03-27T20:04:51.557Z,96839.16
2019-03-27T20:07:19.928Z,96843.13
2019-03-27T20:09:49.258Z,96846.64
2019-03-27T20:14:51.833Z,96841.51
2019-03-27T20:17:20.175Z,96847.59
2019-03-27T20:19:48.540Z,96846.00
2019-03-27T20:22:16.910Z,96853.96
2019-03-27T20:24:45.280Z,96854.67
2019-03-27T20:27:13.626Z,96852.33
2019-03-27T20:29:42.008Z,96854.97
2019-03-27T20:32:10.376Z,96855.45
2019-03-27T20:34:38.722Z,96855.06
2019-03-27T20:37:07.123Z,96861.30
2019-03-27T20:39:35.468Z,96859.96
2019-03-27T20:42:03.806Z,96854.81
2019-03-27T20:44:32.196Z,96853.61
2019-03-27T20:47:00.523Z,96850.70
2019-03-27T20:49:28.884Z,96852.80
2019-03-27T20:51:57.320Z,96848.72
2019-03-27T20:54:25.696Z,96849.95
2019-03-27T20:56:54.025Z,96849.45
2019-03-27T20:59:22.368Z,96851.13
2019-03-27T21:01:50.740Z,96851.17
2019-03-27T21:04:19.179Z,96851.80
2019-03-27T21:06:47.508Z,96853.51
2019-03-27T21:09:15.853Z,96855.14
2019-03-27T21:11:45.156Z,96853.87
2019-03-27T21:14:13.512Z,96854.22
2019-03-27T21:16:41.847Z,96856.18
2019-03-27T21:19:10.190Z,96849.78
2019-03-27T21:21:41.674Z,96852.00
2019-03-27T21:24:06.909Z,96849.91
2019-03-27T21:26:35.313Z,96851.53
2019-03-27T21:29:03.648Z,96850.11
2019-03-27T21:31:31.992Z,96850.70
2019-03-27T21:34:00.384Z,96852.19
2019-03-27T21:36:28.744Z,96850.14
2019-03-27T21:38:57.093Z,96853.34
2019-03-27T21:41:25.455Z,96856.47
2019-03-27T21:43:53.808Z,96851.75
2019-03-27T21:46:22.128Z,96855.95
2019-03-27T21:48:50.472Z,96854.38
2019-03-27T21:51:18.810Z,96854.02
2019-03-27T21:53:50.782Z,96854.86
2019-03-27T21:56:16.502Z,96855.81
2019-03-27T21:58:44.831Z,96856.39
2019-03-27T22:01:13.182Z,96856.81
2019-03-27T22:03:41.601Z,96857.42
2019-03-27T22:06:10.193Z,96858.52
2019-03-27T22:08:38.540Z,96863.33
2019-03-27T22:11:06.911Z,96864.81
2019-03-27T22:13:35.258Z,96864.11
2019-03-27T22:16:03.653Z,96864.09
2019-03-27T22:18:31.991Z,96861.17
2019-03-27T22:21:00.341Z,96865.17
2019-03-27T22:23:28.760Z,96865.48
2019-03-27T22:25:57.097Z,96862.17
2019-03-27T22:28:25.436Z,96859.28
2019-03-27T22:30:53.792Z,96858.80
2019-03-27T22:33:23.160Z,96859.83
2019-03-27T22:35:51.533Z,96858.83
2019-03-27T22:38:19.868Z,96862.03
2019-03-27T22:40:48.222Z,96863.25
2019-03-27T22:43:16.567Z,96866.15
2019-03-27T22:45:44.926Z,96860.73
2019-03-27T22:48:13.277Z,96859.48
2019-03-27T22:50:41.624Z,96862.56
2019-03-27T22:53:09.952Z,96859.98
2019-03-27T22:55:49.112Z,96858.68
2019-03-27T22:58:06.661Z,96856.13
2019-03-27T23:00:47.857Z,96859.60
2019-03-27T23:03:18.429Z,96857.82
2019-03-27T23:05:44.565Z,96860.13
2019-03-27T23:08:12.945Z,96859.24
2019-03-27T23:10:41.288Z,96857.33
2019-03-27T23:13:09.636Z,96856.96
2019-03-27T23:15:38.012Z,96854.92
2019-03-27T23:18:06.331Z,96859.06
2019-03-27T23:20:34.689Z,96865.14
2019-03-27T23:23:03.025Z,96860.33
2019-03-27T23:25:31.398Z,96859.38
2019-03-27T23:27:59.769Z,96858.34
2019-03-27T23:30:28.157Z,96858.80
2019-03-27T23:32:56.492Z,96848.55
2019-03-27T23:35:24.841Z,96853.55
2019-03-27T23:37:53.214Z,96858.06
2019-03-27T23:40:21.576Z,96865.05
2019-03-27T23:42:49.931Z,96858.10
2019-03-27T23:45:19.296Z,96856.79
2019-03-27T23:47:47.724Z,96856.61
2019-03-27T23:50:16.048Z,96852.86
2019-03-27T23:52:44.410Z,96858.55
2019-03-27T23:55:12.844Z,96857.59
2019-03-27T23:57:41.168Z,96853.64
